Wylie's Hourly Summary for Tuesday, March 14, 2017
Hour Temp
(f)
RH
(%)
Solar Rad.
(MJ/m2)
Rainfall
(in)
Wind
(mph)
3/14/2017 12:00 AM 44 46 0 0 5.86
3/14/2017 1:00 AM 43 49 0 0 6.92
3/14/2017 2:00 AM 42 52 0 0 5.08
3/14/2017 3:00 AM 42 51 0 0 6.09
3/14/2017 4:00 AM 41 51 0 0 5.46
3/14/2017 5:00 AM 40 55 0 0 2.98
3/14/2017 6:00 AM 37 61 0 0 0.84
3/14/2017 7:00 AM 35 70 0 0 1.02
3/14/2017 8:00 AM 35 74 0.03 0 1.76
3/14/2017 9:00 AM 40 57 0.5 0 1.08
3/14/2017 10:00 AM 43 49 1.17 0 4.02
3/14/2017 11:00 AM 45 45 1.84 0 3.54
3/14/2017 12:00 PM 48 44 2.43 0 3.5
3/14/2017 1:00 PM 50 38 2.77 0 2.78
3/14/2017 2:00 PM 53 36 2.93 0 3.28
3/14/2017 3:00 PM 55 35 2.77 0 4.41
3/14/2017 4:00 PM 57 34 2.56 0 4.44
3/14/2017 5:00 PM 59 32 2.05 0 4.14
3/14/2017 6:00 PM 60 32 1.2 0 3.99
3/14/2017 7:00 PM 59 35 0.31 0 3.99
3/14/2017 8:00 PM 56 39 0.03 0 2.57
3/14/2017 9:00 PM 55 44 0 0 2.81
3/14/2017 10:00 PM 54 43 0 0 2.03
3/14/2017 11:00 PM 53 49 0 0 3.91
Data Summary 47 46 20.59 0.00 3.60